Time;durP1;ratioP1;P1;durP2;ratioP2;P2;SDS_P1;SDS_P2;PMS_P1;PMS_P2;Temp;Humidity;BMP_temperature;BMP_pressure;BME280_temperature;BME280_humidity;BME280_pressure;Samples;Min_cycle;Max_cycle;Signal;HPM_P1;HPM_P2
2022/06/20 00:01:07;;;;;;;4.82;2.60;;;15.70;99.90;;;;;;10302448;28;20508;-84
2022/06/20 00:06:28;;;;;;;6.88;2.42;;;15.70;99.90;;;;;;10275490;28;20209;-85
2022/06/20 00:11:50;;;;;;;4.10;2.63;;;15.60;99.90;;;;;;10281102;28;20206;-84
2022/06/20 00:17:14;;;;;;;4.75;2.72;;;15.70;99.90;;;;;;10304920;28;20196;-84
2022/06/20 00:22:35;;;;;;;4.95;2.63;;;15.60;99.90;;;;;;10274897;28;20555;-84
2022/06/20 00:27:58;;;;;;;5.32;2.20;;;15.60;99.90;;;;;;10347340;28;20260;-84
2022/06/20 00:33:19;;;;;;;3.88;2.28;;;15.60;99.90;;;;;;10347375;28;20245;-84
2022/06/20 00:38:43;;;;;;;5.82;2.45;;;15.50;99.90;;;;;;10344223;28;20256;-85
2022/06/20 00:44:10;;;;;;;5.45;2.22;;;15.60;99.90;;;;;;10343833;28;20294;-84
2022/06/20 00:49:50;;;;;;;4.28;1.83;;;15.60;99.90;;;;;;10343713;28;20211;-85
2022/06/20 00:55:24;;;;;;;2.22;1.58;;;15.70;99.90;;;;;;10327109;28;20216;-85
2022/06/20 01:00:46;;;;;;;1.48;1.05;;;15.70;99.90;;;;;;10356758;28;20207;-85
2022/06/20 01:06:16;;;;;;;4.18;2.15;;;15.70;99.90;;;;;;10340356;28;20235;-85
2022/06/20 01:11:49;;;;;;;2.75;1.50;;;15.60;99.90;;;;;;10356994;28;20202;-85
2022/06/20 01:17:28;;;;;;;2.28;1.52;;;15.60;99.90;;;;;;10326328;28;20231;-85
2022/06/20 01:23:07;;;;;;;4.47;2.00;;;15.50;99.90;;;;;;10312475;28;20321;-85
2022/06/20 01:28:38;;;;;;;1.65;1.30;;;15.50;99.90;;;;;;10352698;28;20199;-85
2022/06/20 01:34:01;;;;;;;5.30;1.92;;;15.40;99.90;;;;;;10301661;28;20524;-85
2022/06/20 01:39:24;;;;;;;4.10;2.28;;;15.20;99.90;;;;;;10324440;28;20247;-85
2022/06/20 01:44:49;;;;;;;2.78;1.58;;;15.20;99.90;;;;;;10329046;28;20414;-84
2022/06/20 01:50:10;;;;;;;4.28;1.40;;;15.20;99.90;;;;;;10352126;28;20185;-85
2022/06/20 01:55:35;;;;;;;5.18;1.80;;;15.10;99.90;;;;;;10349274;28;20210;-85
2022/06/20 02:00:59;;;;;;;2.65;1.58;;;15.00;99.90;;;;;;10300987;28;20546;-84
2022/06/20 02:06:21;;;;;;;1.88;1.42;;;15.20;99.90;;;;;;10285057;28;20302;-85
2022/06/20 02:11:45;;;;;;;2.53;1.38;;;15.30;99.90;;;;;;10305635;28;20267;-85
2022/06/20 02:17:17;;;;;;;1.70;1.30;;;15.40;99.90;;;;;;10311258;28;20227;-84
2022/06/20 02:22:40;;;;;;;3.70;1.63;;;15.40;99.90;;;;;;10327241;28;20225;-84
2022/06/20 02:28:09;;;;;;;3.63;1.23;;;15.40;99.90;;;;;;10327312;28;20204;-85
2022/06/20 02:33:31;;;;;;;2.35;1.33;;;15.40;99.90;;;;;;10378929;28;20244;-84
2022/06/20 02:38:52;;;;;;;6.90;1.70;;;15.40;99.90;;;;;;10318244;28;20237;-85
2022/06/20 02:44:18;;;;;;;1.65;1.42;;;15.40;99.90;;;;;;10310743;28;20236;-84
2022/06/20 02:49:41;;;;;;;3.08;1.60;;;15.40;99.90;;;;;;10327048;28;20417;-85
2022/06/20 02:55:05;;;;;;;2.38;2.17;;;15.40;99.90;;;;;;10323807;28;20567;-85
2022/06/20 03:00:37;;;;;;;3.33;2.20;;;15.30;98.60;;;;;;10286540;28;20202;-85
2022/06/20 03:05:58;;;;;;;2.90;2.03;;;15.20;99.90;;;;;;10270329;28;20234;-84
2022/06/20 03:11:20;;;;;;;6.63;2.38;;;15.30;99.30;;;;;;10298713;28;20519;-84
2022/06/20 03:16:42;;;;;;;2.45;2.10;;;15.20;96.40;;;;;;10323367;28;20219;-84
2022/06/20 03:22:07;;;;;;;3.60;2.58;;;15.20;99.10;;;;;;10339762;28;20286;-84
2022/06/20 03:27:33;;;;;;;15.60;7.38;;;15.10;99.90;;;;;;10364665;28;20199;-84
2022/06/20 03:32:55;;;;;;;4.75;3.08;;;15.00;99.90;;;;;;10336554;28;20250;-84
2022/06/20 03:38:17;;;;;;;1.88;1.77;;;15.00;97.40;;;;;;10346153;28;20267;-84
2022/06/20 03:43:42;;;;;;;4.50;1.60;;;15.00;93.60;;;;;;10329617;28;20574;-84
2022/06/20 03:49:15;;;;;;;2.22;1.38;;;15.10;92.60;;;;;;10315917;28;20227;-84
2022/06/20 03:54:46;;;;;;;2.30;1.50;;;15.10;88.30;;;;;;10315585;28;20227;-83
2022/06/20 04:00:15;;;;;;;2.30;1.40;;;15.00;77.00;;;;;;10305812;28;20224;-84
2022/06/20 04:05:57;;;;;;;2.13;1.20;;;15.00;66.40;;;;;;10302169;28;20260;-84
2022/06/20 04:11:22;;;;;;;5.13;2.13;;;15.00;64.80;;;;;;10303380;28;20531;-84
2022/06/20 04:16:57;;;;;;;3.35;1.80;;;15.00;71.80;;;;;;10328420;28;20205;-84
2022/06/20 04:22:27;;;;;;;2.72;1.40;;;15.10;45.00;;;;;;10330922;28;20286;-84
2022/06/20 04:27:58;;;;;;;2.78;1.55;;;15.20;58.00;;;;;;10335079;28;20199;-84
2022/06/20 04:33:59;;;;;;;2.15;1.38;;;15.20;58.20;;;;;;10330751;28;20248;-82
2022/06/20 04:39:30;;;;;;;3.83;1.00;;;15.20;51.80;;;;;;10344079;28;20204;-84
2022/06/20 04:44:55;;;;;;;1.98;1.00;;;15.30;34.90;;;;;;10327388;28;20244;-84
2022/06/20 04:50:27;;;;;;;2.38;1.30;;;15.40;24.00;;;;;;10327253;28;20205;-84
2022/06/20 04:55:51;;;;;;;1.92;1.17;;;15.50;8.70;;;;;;10343797;28;20195;-84
2022/06/20 05:01:13;;;;;;;2.33;1.33;;;15.50;1.00;;;;;;10397802;28;20490;-84
2022/06/20 05:06:37;;;;;;;2.70;1.10;;;15.50;1.00;;;;;;10368368;28;20691;-82
2022/06/20 05:12:12;;;;;;;1.42;1.00;;;15.50;1.00;;;;;;10346753;28;20199;-83
2022/06/20 05:17:35;;;;;;;2.53;1.17;;;15.60;1.00;;;;;;10340408;28;20259;-84
2022/06/20 05:23:32;;;;;;;2.80;1.23;;;15.70;1.00;;;;;;10342405;28;20255;-83
2022/06/20 05:28:57;;;;;;;2.22;1.50;;;15.80;1.00;;;;;;10367197;28;20214;-84
2022/06/20 05:34:58;;;;;;;1.38;1.05;;;15.80;1.00;;;;;;10325099;28;20220;-85
2022/06/20 05:40:39;;;;;;;1.60;1.10;;;15.70;1.00;;;;;;10287809;28;20228;-83
2022/06/20 05:46:20;;;;;;;5.03;1.25;;;16.00;1.00;;;;;;10284821;28;20536;-90
2022/06/20 05:51:44;;;;;;;2.85;1.35;;;16.50;1.00;;;;;;10284530;28;20440;-90
2022/06/20 05:57:12;;;;;;;1.60;1.48;;;16.70;1.00;;;;;;10308265;28;20224;-86
2022/06/20 06:02:41;;;;;;;2.08;1.25;;;16.80;1.00;;;;;;10356114;28;20236;-93
2022/06/20 06:08:03;;;;;;;2.80;1.70;;;16.90;1.00;;;;;;10325031;28;20249;-81
2022/06/20 06:13:46;;;;;;;2.78;1.40;;;17.00;1.00;;;;;;10327236;28;20207;-83
2022/06/20 06:19:35;;;;;;;2.97;1.40;;;17.00;1.00;;;;;;10321489;28;20208;-83
2022/06/20 06:25:03;;;;;;;2.00;1.20;;;16.60;1.00;;;;;;10337763;28;20506;-83
2022/06/20 06:30:30;;;;;;;2.15;1.30;;;16.70;1.00;;;;;;10379993;28;20262;-82
2022/06/20 06:35:55;;;;;;;2.05;1.20;;;16.90;1.00;;;;;;10342096;28;20279;-81
2022/06/20 06:41:24;;;;;;;2.30;1.30;;;16.90;1.00;;;;;;10326280;28;20251;-80
2022/06/20 06:46:51;;;;;;;5.15;2.63;;;17.00;1.00;;;;;;10336632;28;20534;-81
2022/06/20 06:52:27;;;;;;;6.85;3.38;;;17.20;1.00;;;;;;10323631;28;20209;-83
2022/06/20 06:57:59;;;;;;;3.28;1.55;;;17.30;1.00;;;;;;10340887;28;20205;-83
2022/06/20 07:03:33;;;;;;;2.92;1.50;;;17.30;1.00;;;;;;10347413;28;20231;-81
2022/06/20 07:09:36;;;;;;;4.15;2.03;;;17.30;1.00;;;;;;10331012;28;20211;-85
2022/06/20 07:15:19;;;;;;;15.18;7.97;;;17.50;1.00;;;;;;10316832;28;20256;-86
2022/06/20 07:20:41;;;;;;;5.93;2.47;;;17.80;1.00;;;;;;10268125;28;20235;-80
2022/06/20 07:26:03;;;;;;;5.72;1.80;;;17.80;1.00;;;;;;10284207;28;20222;-86
2022/06/20 07:31:37;;;;;;;4.93;1.48;;;17.90;1.00;;;;;;10278506;28;20234;-81
2022/06/20 07:37:27;;;;;;;24.67;12.40;;;17.80;1.00;;;;;;10245971;29;20283;-83
2022/06/20 07:43:15;;;;;;;8.25;3.90;;;17.50;1.00;;;;;;10220444;29;20235;-84
2022/06/20 07:48:39;;;;;;;4.78;1.50;;;17.40;1.00;;;;;;10217874;29;20214;-79
2022/06/20 07:54:29;;;;;;;3.90;1.70;;;17.30;1.00;;;;;;10217901;29;20255;-82
2022/06/20 08:00:05;;;;;;;5.10;1.98;;;17.20;1.00;;;;;;10218634;29;20202;-82
2022/06/20 08:05:40;;;;;;;4.68;1.75;;;17.20;1.00;;;;;;10235636;29;20239;-82
2022/06/20 08:11:10;;;;;;;6.75;1.77;;;17.10;1.00;;;;;;10246360;29;20541;-81
2022/06/20 08:16:32;;;;;;;3.78;1.48;;;16.90;1.00;;;;;;10278976;28;20218;-80
2022/06/20 08:22:16;;;;;;;7.10;1.85;;;16.90;1.00;;;;;;10276358;28;20214;-80
2022/06/20 08:27:53;;;;;;;5.55;2.00;;;16.80;1.00;;;;;;10276678;28;20208;-85
2022/06/20 08:33:41;;;;;;;9.10;1.73;;;16.70;1.00;;;;;;10313975;28;20569;-81
2022/06/20 08:39:12;;;;;;;6.05;2.35;;;16.70;1.00;;;;;;10312802;28;20240;-82
2022/06/20 08:45:04;;;;;;;6.75;1.77;;;16.60;1.00;;;;;;10311134;28;20544;-84
2022/06/20 08:51:04;;;;;;;5.60;2.10;;;16.50;1.00;;;;;;10311611;28;20205;-83
2022/06/20 08:56:40;;;;;;;4.78;1.50;;;16.50;1.00;;;;;;10311451;28;20205;-82
2022/06/20 09:02:22;;;;;;;4.28;1.45;;;16.50;1.00;;;;;;10312464;28;20271;-86
2022/06/20 09:07:44;;;;;;;8.95;2.35;;;16.40;1.00;;;;;;10315975;28;20200;-83
2022/06/20 09:13:27;;;;;;;5.63;1.58;;;16.40;1.00;;;;;;10293883;28;20255;-85
2022/06/20 09:19:06;;;;;;;6.38;1.60;;;16.30;1.00;;;;;;10244491;29;20258;-85
2022/06/20 09:25:04;;;;;;;6.82;2.17;;;16.30;7.60;;;;;;10266191;29;20311;-81
2022/06/20 09:30:46;;;;;;;6.65;2.60;;;16.00;1.00;;;;;;10243607;29;20568;-78
2022/06/20 09:36:32;;;;;;;5.63;1.95;;;15.80;44.90;;;;;;10240393;29;20203;-80
2022/06/20 09:42:27;;;;;;;7.63;2.03;;;15.60;74.90;;;;;;10240178;29;20278;-80
2022/06/20 09:48:06;;;;;;;6.05;2.63;;;15.50;99.90;;;;;;10226538;29;20203;-80
2022/06/20 09:54:03;;;;;;;7.20;2.22;;;15.60;83.80;;;;;;10248137;29;20217;-81
2022/06/20 09:59:38;;;;;;;5.30;2.33;;;15.50;93.40;;;;;;10165471;29;20207;-78
2022/06/20 10:05:10;;;;;;;8.05;2.30;;;15.50;97.10;;;;;;10180622;29;20262;-80
2022/06/20 10:10:49;;;;;;;6.10;2.78;;;15.70;92.20;;;;;;10166744;29;20220;-89
2022/06/20 10:16:16;;;;;;;6.72;3.00;;;15.80;56.60;;;;;;10213421;29;20221;-84
2022/06/20 10:21:44;;;;;;;9.27;4.22;;;15.80;98.00;;;;;;10176786;29;20501;-79
2022/06/20 10:27:09;;;;;;;8.13;2.88;;;15.80;61.70;;;;;;10175762;29;20515;-81
2022/06/20 10:33:08;;;;;;;4.78;2.33;;;16.00;46.70;;;;;;10199029;29;20250;-79
2022/06/20 10:38:56;;;;;;;9.20;2.67;;;16.00;88.20;;;;;;10245222;29;20198;-80
2022/06/20 10:44:30;;;;;;;11.18;4.43;;;15.90;93.00;;;;;;10237503;29;20219;-86
2022/06/20 10:50:15;;;;;;;8.60;3.55;;;15.80;79.80;;;;;;10233675;29;20197;-82
2022/06/20 10:55:51;;;;;;;5.18;1.90;;;15.90;99.90;;;;;;10263096;29;20232;-82
2022/06/20 11:01:31;;;;;;;4.85;1.80;;;16.00;99.90;;;;;;10278295;29;20555;-91
2022/06/20 11:07:12;;;;;;;4.93;2.53;;;16.00;99.90;;;;;;10277321;29;20396;-91
2022/06/20 11:13:00;;;;;;;8.88;3.20;;;16.00;98.90;;;;;;10276212;29;20264;-83
2022/06/20 11:18:49;;;;;;;12.73;4.00;;;16.10;60.50;;;;;;10300405;28;20436;-81
2022/06/20 11:24:34;;;;;;;7.90;2.65;;;16.30;49.20;;;;;;10263825;29;20466;-90
2022/06/20 11:30:04;;;;;;;11.02;2.95;;;16.60;12.50;;;;;;10295282;28;20454;-83
2022/06/20 11:35:42;;;;;;;13.27;6.63;;;16.70;1.00;;;;;;10341133;28;20208;-85
2022/06/20 11:41:14;;;;;;;21.30;10.48;;;16.80;7.60;;;;;;10323915;28;20216;-86
2022/06/20 11:47:00;;;;;;;11.88;4.65;;;16.90;1.00;;;;;;10323388;28;20267;-84
2022/06/20 11:52:42;;;;;;;15.25;8.82;;;17.30;1.00;;;;;;10324807;28;20217;-88
2022/06/20 11:58:16;;;;;;;12.20;5.25;;;18.10;1.00;;;;;;10324670;28;20199;-79
2022/06/20 12:04:03;;;;;;;10.45;4.25;;;18.60;1.00;;;;;;10299017;28;20249;-83
2022/06/20 12:09:47;;;;;;;5.68;2.25;;;18.40;1.00;;;;;;10283320;28;20198;-82
2022/06/20 12:15:47;;;;;;;446.38;141.68;;;18.30;1.00;;;;;;10289108;28;20217;-82
2022/06/20 12:26:55;;;;;;;15.73;6.63;;;17.60;1.00;;;;;;10211624;29;20264;-81
2022/06/20 12:32:25;;;;;;;20.40;8.35;;;17.50;1.00;;;;;;10166268;29;20628;-81
2022/06/20 12:38:09;;;;;;;10.38;4.47;;;17.40;1.00;;;;;;10157853;29;20282;-85
2022/06/20 12:43:54;;;;;;;9.02;3.72;;;17.30;1.00;;;;;;10187343;29;20251;-79
2022/06/20 12:49:40;;;;;;;5.40;2.92;;;17.20;1.00;;;;;;10159000;29;20232;-83
2022/06/20 12:55:31;;;;;;;13.70;9.32;;;17.20;1.00;;;;;;10255762;28;20237;-82
2022/06/20 13:01:24;;;;;;;7.50;3.90;;;17.10;1.00;;;;;;10288097;28;20210;-83
2022/06/20 13:07:22;;;;;;;7.57;3.53;;;17.00;1.00;;;;;;10283793;28;20566;-82
2022/06/20 13:12:50;;;;;;;4.20;2.28;;;17.00;1.00;;;;;;10275745;28;20397;-81
2022/06/20 13:18:46;;;;;;;5.30;2.33;;;16.90;1.00;;;;;;10278621;28;20216;-82
2022/06/20 13:24:11;;;;;;;9.18;2.35;;;16.90;1.00;;;;;;10283423;28;20237;-82
2022/06/20 13:29:39;;;;;;;16.40;9.02;;;16.90;5.70;;;;;;10296650;28;20260;-83
2022/06/20 13:35:13;;;;;;;5.75;3.22;;;16.80;40.20;;;;;;10257768;28;20532;-85
2022/06/20 13:40:52;;;;;;;5.32;2.15;;;16.70;65.50;;;;;;10266144;28;20202;-83
2022/06/20 13:46:43;;;;;;;9.73;3.30;;;16.50;96.80;;;;;;10268383;28;20260;-82
2022/06/20 13:52:10;;;;;;;11.63;4.00;;;16.40;92.30;;;;;;10264805;28;20207;-83
2022/06/20 13:57:40;;;;;;;6.88;2.70;;;16.20;99.90;;;;;;10285159;28;20224;-85
2022/06/20 14:03:16;;;;;;;6.95;3.00;;;16.20;99.90;;;;;;10264101;28;20213;-82
2022/06/20 14:08:42;;;;;;;8.82;2.65;;;16.00;99.90;;;;;;10288006;28;20233;-90
2022/06/20 14:14:04;;;;;;;6.97;2.28;;;15.90;99.90;;;;;;10271667;28;20522;-87
2022/06/20 14:19:44;;;;;;;8.20;2.45;;;15.80;99.90;;;;;;10281461;28;20575;-85
2022/06/20 14:25:43;;;;;;;8.57;2.72;;;15.80;99.90;;;;;;10263813;28;20231;-86
2022/06/20 14:31:10;;;;;;;9.00;2.78;;;15.70;99.90;;;;;;10263862;28;20325;-86
2022/06/20 14:36:41;;;;;;;4.45;2.05;;;15.70;99.90;;;;;;10269623;28;20216;-85
2022/06/20 14:42:07;;;;;;;6.28;2.60;;;15.70;99.90;;;;;;10273370;28;20212;-86
2022/06/20 14:47:37;;;;;;;4.20;2.08;;;15.80;99.90;;;;;;10255529;28;20234;-82
2022/06/20 14:53:13;;;;;;;5.32;2.20;;;15.80;99.90;;;;;;10258553;28;20213;-86
2022/06/20 14:58:37;;;;;;;5.80;2.55;;;15.80;99.90;;;;;;10277509;28;20210;-83
2022/06/20 15:04:08;;;;;;;3.30;2.13;;;15.80;99.90;;;;;;10275936;28;20603;-82
2022/06/20 15:09:36;;;;;;;4.05;2.20;;;15.90;99.90;;;;;;10276847;28;20240;-82
2022/06/20 15:15:07;;;;;;;6.70;3.35;;;15.90;99.90;;;;;;10257019;28;20204;-83
2022/06/20 15:20:37;;;;;;;7.85;3.97;;;15.90;99.90;;;;;;10283980;28;20420;-83
2022/06/20 15:26:23;;;;;;;4.75;2.65;;;15.80;99.90;;;;;;10309602;28;20304;-83
2022/06/20 15:32:05;;;;;;;7.78;3.28;;;15.60;99.90;;;;;;10168736;29;20436;-82
2022/06/20 15:37:30;;;;;;;5.68;2.53;;;15.50;99.90;;;;;;10179478;29;20271;-81
2022/06/20 15:43:01;;;;;;;4.78;2.65;;;15.40;99.90;;;;;;10186450;29;20258;-84
2022/06/20 15:48:50;;;;;;;5.88;3.58;;;15.40;99.90;;;;;;10171471;29;20220;-82
2022/06/20 15:54:29;;;;;;;5.40;3.00;;;15.30;99.90;;;;;;10176389;29;20544;-83
2022/06/20 16:00:11;;;;;;;4.95;2.45;;;15.20;99.90;;;;;;10166480;29;20229;-83
2022/06/20 16:06:34;;;;;;;4.88;2.60;;;15.20;99.90;;;;;;10187547;28;20240;-83
2022/06/20 16:12:07;;;;;;;6.70;3.00;;;15.30;99.90;;;;;;10121820;29;20223;-81
2022/06/20 16:17:38;;;;;;;5.60;2.67;;;15.50;99.90;;;;;;10140428;29;20224;-83
2022/06/20 16:23:29;;;;;;;9.63;3.40;;;15.40;99.90;;;;;;10141825;29;20269;-82
2022/06/20 16:29:10;;;;;;;4.07;2.50;;;15.30;99.90;;;;;;10140077;29;20300;-82
2022/06/20 16:34:31;;;;;;;5.50;2.33;;;15.20;99.90;;;;;;10131011;29;20328;-82
2022/06/20 16:40:06;;;;;;;4.20;2.03;;;15.30;99.90;;;;;;10151658;29;20309;-83
2022/06/20 16:45:30;;;;;;;8.68;2.40;;;15.30;99.90;;;;;;10172350;29;20234;-82
2022/06/20 16:51:03;;;;;;;3.90;2.08;;;15.30;99.90;;;;;;10262749;29;20212;-82
2022/06/20 16:56:32;;;;;;;5.07;2.38;;;15.20;99.90;;;;;;10277831;28;20260;-82
2022/06/20 17:02:04;;;;;;;5.88;2.70;;;15.20;99.90;;;;;;10270885;28;20209;-82
2022/06/20 17:07:33;;;;;;;5.35;2.78;;;15.10;99.90;;;;;;10302449;28;20236;-79
2022/06/20 17:13:12;;;;;;;3.15;1.80;;;15.00;99.90;;;;;;10330891;28;20284;-81
2022/06/20 17:18:44;;;;;;;4.00;2.20;;;15.00;99.90;;;;;;10236188;29;20493;-82
2022/06/20 17:24:38;;;;;;;4.80;3.05;;;14.80;99.90;;;;;;10275390;28;20311;-81
2022/06/20 17:30:23;;;;;;;3.78;2.25;;;14.80;99.90;;;;;;10284044;28;20307;-81
2022/06/20 17:36:05;;;;;;;3.20;2.05;;;14.80;99.90;;;;;;10271109;28;20212;-80
2022/06/20 17:41:48;;;;;;;4.07;2.20;;;14.80;99.90;;;;;;10259730;28;20228;-81
2022/06/20 17:47:38;;;;;;;6.18;3.53;;;14.80;99.90;;;;;;10290951;28;20308;-81
2022/06/20 17:53:13;;;;;;;10.10;3.75;;;14.70;99.90;;;;;;10281732;28;20280;-81
2022/06/20 17:58:46;;;;;;;10.00;3.72;;;14.70;99.90;;;;;;10269038;28;20213;-81
2022/06/20 18:04:12;;;;;;;4.13;2.38;;;14.80;99.90;;;;;;10309406;28;20223;-81
2022/06/20 18:09:52;;;;;;;2.85;2.10;;;14.80;99.90;;;;;;10313016;28;20235;-82
2022/06/20 18:15:19;;;;;;;3.63;2.17;;;14.80;99.90;;;;;;10315462;28;20196;-83
2022/06/20 18:20:53;;;;;;;3.05;1.90;;;14.80;99.90;;;;;;10266707;28;20401;-82
2022/06/20 18:26:38;;;;;;;4.32;2.30;;;14.90;99.90;;;;;;10263740;28;20236;-83
2022/06/20 18:32:04;;;;;;;6.07;2.45;;;14.90;99.90;;;;;;10287932;28;20469;-82
2022/06/20 18:37:31;;;;;;;6.32;2.10;;;14.80;99.90;;;;;;10270251;28;20202;-82
2022/06/20 18:42:56;;;;;;;3.58;2.33;;;14.80;99.90;;;;;;10292368;28;20415;-83
2022/06/20 18:48:32;;;;;;;4.40;2.40;;;14.70;99.90;;;;;;10307500;28;20232;-83
2022/06/20 18:54:13;;;;;;;4.22;2.78;;;14.60;99.90;;;;;;10284132;28;20204;-82
2022/06/20 18:59:56;;;;;;;5.25;3.22;;;14.50;99.90;;;;;;10292386;28;20208;-82
2022/06/20 19:05:42;;;;;;;4.28;2.55;;;14.50;99.90;;;;;;10333424;28;20231;-82
2022/06/20 19:11:29;;;;;;;4.80;3.30;;;14.50;99.90;;;;;;10312401;28;20185;-82
2022/06/20 19:17:09;;;;;;;6.18;3.58;;;14.50;99.90;;;;;;10271367;28;20429;-82
2022/06/20 19:22:52;;;;;;;4.97;3.28;;;14.50;99.90;;;;;;10307962;28;20209;-82
2022/06/20 19:28:32;;;;;;;6.07;3.95;;;14.40;99.90;;;;;;10253747;28;20289;-82
2022/06/20 19:34:24;;;;;;;7.88;4.95;;;14.40;99.90;;;;;;10286137;28;20538;-81
2022/06/20 19:39:54;;;;;;;6.35;4.00;;;14.30;99.90;;;;;;10269838;28;20247;-82
2022/06/20 19:45:33;;;;;;;6.43;3.35;;;14.30;99.90;;;;;;10271192;28;20234;-82
2022/06/20 19:50:56;;;;;;;7.93;3.60;;;14.30;99.90;;;;;;10295922;28;20200;-82
2022/06/20 19:56:17;;;;;;;4.47;3.30;;;14.20;99.90;;;;;;10324552;28;20264;-82
2022/06/20 20:01:42;;;;;;;4.95;3.15;;;14.20;99.90;;;;;;10282431;28;20503;-83
2022/06/20 20:07:20;;;;;;;5.70;3.25;;;14.30;99.90;;;;;;10307412;28;20223;-83
2022/06/20 20:12:44;;;;;;;6.43;3.67;;;14.20;99.90;;;;;;10294890;28;20209;-83
2022/06/20 20:18:31;;;;;;;4.45;3.15;;;14.10;99.90;;;;;;10282815;28;20205;-82
2022/06/20 20:23:58;;;;;;;7.30;3.60;;;14.10;99.90;;;;;;10287628;28;20246;-82
2022/06/20 20:29:53;;;;;;;3.13;2.78;;;14.10;99.90;;;;;;10279762;28;20240;-83
2022/06/20 20:35:39;;;;;;;3.40;2.17;;;14.20;99.90;;;;;;10285170;28;20212;-80
2022/06/20 20:41:24;;;;;;;4.82;2.75;;;14.20;99.90;;;;;;10294052;28;20250;-82
2022/06/20 20:47:04;;;;;;;3.95;2.65;;;14.20;99.90;;;;;;10282674;28;20231;-82
2022/06/20 20:52:46;;;;;;;4.13;2.33;;;14.20;99.90;;;;;;10283692;28;20207;-82
2022/06/20 20:58:16;;;;;;;3.88;2.65;;;14.20;99.90;;;;;;10290704;28;20208;-82
2022/06/20 21:03:59;;;;;;;5.05;2.88;;;14.20;99.90;;;;;;10303518;28;20219;-82
2022/06/20 21:09:42;;;;;;;6.82;3.10;;;14.20;99.90;;;;;;10318099;28;20218;-83
2022/06/20 21:15:24;;;;;;;4.75;2.47;;;14.20;99.90;;;;;;10301896;28;20212;-82
2022/06/20 21:21:01;;;;;;;3.85;2.30;;;14.20;99.90;;;;;;10249672;28;20279;-82
2022/06/20 21:26:32;;;;;;;4.60;2.58;;;14.00;99.90;;;;;;10251236;28;20239;-82
2022/06/20 21:31:58;;;;;;;2.75;2.15;;;14.00;99.90;;;;;;10279352;28;20249;-82
2022/06/20 21:37:25;;;;;;;3.95;2.60;;;14.00;99.90;;;;;;10271338;28;20221;-82
2022/06/20 21:42:57;;;;;;;2.70;1.75;;;14.00;99.90;;;;;;10265614;28;20230;-82
2022/06/20 21:48:23;;;;;;;5.30;2.20;;;14.00;99.90;;;;;;10269539;28;20243;-82
2022/06/20 21:53:58;;;;;;;4.25;2.30;;;14.10;99.90;;;;;;10261073;28;20478;-82
2022/06/20 21:59:45;;;;;;;8.68;2.45;;;14.00;99.90;;;;;;10298194;28;20432;-82
2022/06/20 22:05:17;;;;;;;5.93;1.85;;;13.80;99.90;;;;;;10269951;28;20271;-82
2022/06/20 22:10:43;;;;;;;2.53;1.30;;;13.70;99.90;;;;;;10329032;28;20215;-82
2022/06/20 22:16:04;;;;;;;6.25;2.10;;;13.60;99.90;;;;;;10290889;28;20200;-82
2022/06/20 22:21:27;;;;;;;3.95;1.52;;;13.60;99.90;;;;;;10271869;28;20242;-85
2022/06/20 22:27:15;;;;;;;2.22;1.10;;;13.40;99.90;;;;;;10271157;28;20309;-82
2022/06/20 22:32:36;;;;;;;3.20;1.45;;;13.40;99.90;;;;;;10267918;28;20233;-83
2022/06/20 22:38:46;;;;;;;3.15;1.15;;;13.30;99.90;;;;;;10292419;28;20284;-83
2022/06/20 22:44:12;;;;;;;2.75;1.30;;;13.20;99.90;;;;;;10162378;29;20267;-83
2022/06/20 22:49:42;;;;;;;2.22;1.33;;;13.30;99.90;;;;;;10160069;29;20202;-82
2022/06/20 22:55:12;;;;;;;1.67;1.05;;;13.30;99.90;;;;;;10179377;29;20218;-82
2022/06/20 23:00:37;;;;;;;3.53;1.52;;;13.30;99.90;;;;;;10192261;29;20333;-82
2022/06/20 23:06:01;;;;;;;3.45;1.50;;;13.30;99.90;;;;;;10164552;29;20239;-83
2022/06/20 23:11:24;;;;;;;1.38;1.17;;;13.40;99.90;;;;;;10167927;29;20219;-83
2022/06/20 23:22:30;;;;;;;1.58;1.20;;;13.30;99.90;;;;;;10316559;28;20257;-82
2022/06/20 23:27:51;;;;;;;4.75;1.67;;;13.40;99.90;;;;;;10285183;28;20227;-82
2022/06/20 23:33:13;;;;;;;2.03;1.17;;;13.40;99.90;;;;;;10254568;28;20235;-83
2022/06/20 23:38:40;;;;;;;2.55;1.58;;;13.30;99.90;;;;;;10280215;28;20225;-82
2022/06/20 23:44:01;;;;;;;3.40;1.60;;;13.40;99.90;;;;;;10263396;28;20212;-82
2022/06/20 23:49:23;;;;;;;3.92;1.90;;;13.30;99.90;;;;;;10261385;28;20242;-83
2022/06/20 23:54:45;;;;;;;3.78;2.20;;;13.30;99.90;;;;;;10299857;28;20206;-83
